Butteville, Oregon
Current Conditions -  °F | °C
As of 9:53 PM on Thursday 30 Oct 2014 (Local Time) from KUAO Reporting Station
Moderate Rain Moderate Rain  
Wind Chill: 58°   Ceiling: 7000
Heat Index: 58°   Visibility: 6mi
Dew Point: 56°   Wind: 7mph
Humidity: 93%   Direction: 140°SE
Pressure: 29.8"   Gusts: NA
Location:  45.2365°N, 122.797°W
Report Text: KUAO 310453Z AUTO 14006KT 6SM RA BR OVC070 14/13 A2980 RMK AO2 SLP089 P0004 T01440133
Loading
Personal Weather Stations






























Interactive Weather Map
Tropical Storm Tracking
New forecast layout! Learn more

10-Day Weather Forecast

Advertisements
Track Severe Weather on mobile